Time;durP1;ratioP1;P1;durP2;ratioP2;P2;SDS_P1;SDS_P2;PMS_P1;PMS_P2;Temp;Humidity;BMP_temperature;BMP_pressure;BME280_temperature;BME280_humidity;BME280_pressure;Samples;Min_cycle;Max_cycle;Signal;HPM_P1;HPM_P2
2021/09/19 00:02:04;;;;;;;7.00;5.20;;;15.70;71.10;;;;;;5016719;28;20126;-82
2021/09/19 00:04:31;;;;;;;7.63;5.38;;;15.70;71.30;;;;;;5014443;28;20049;-82
2021/09/19 00:06:58;;;;;;;7.13;5.35;;;15.60;71.40;;;;;;5018151;28;20053;-82
2021/09/19 00:09:25;;;;;;;21.90;5.50;;;15.60;71.50;;;;;;5019249;28;20495;-82
2021/09/19 00:11:52;;;;;;;10.65;6.25;;;15.60;71.60;;;;;;5019230;28;20046;-82
2021/09/19 00:14:19;;;;;;;8.25;6.35;;;15.50;71.80;;;;;;5019081;28;20045;-82
2021/09/19 00:16:47;;;;;;;11.10;7.57;;;15.50;71.90;;;;;;5016086;28;20423;-82
2021/09/19 00:19:15;;;;;;;8.60;7.25;;;15.40;72.00;;;;;;5029348;28;20052;-82
2021/09/19 00:21:42;;;;;;;8.40;6.50;;;15.50;72.10;;;;;;5015765;28;20054;-82
2021/09/19 00:24:09;;;;;;;9.75;6.38;;;15.40;72.20;;;;;;5016021;28;20050;-82
2021/09/19 00:26:36;;;;;;;10.80;6.30;;;15.40;72.30;;;;;;5015940;28;20108;-82
2021/09/19 00:29:03;;;;;;;9.57;5.63;;;15.40;72.30;;;;;;5016004;28;20045;-82
2021/09/19 00:31:30;;;;;;;9.75;5.55;;;15.30;72.20;;;;;;5013968;28;20054;-82
2021/09/19 00:33:57;;;;;;;8.23;5.50;;;15.30;72.30;;;;;;5017893;28;20049;-82
2021/09/19 00:36:24;;;;;;;8.52;4.93;;;15.30;72.40;;;;;;5018438;28;20050;-82
2021/09/19 00:38:51;;;;;;;7.40;4.53;;;15.30;72.30;;;;;;5018697;28;20506;-82
2021/09/19 00:41:18;;;;;;;10.13;5.07;;;15.20;72.20;;;;;;5018321;28;20075;-82
2021/09/19 00:43:45;;;;;;;9.30;5.32;;;15.20;72.10;;;;;;5014455;28;20057;-82
2021/09/19 00:46:12;;;;;;;6.93;4.93;;;15.20;71.90;;;;;;5016565;28;20046;-82
2021/09/19 00:48:39;;;;;;;8.00;5.50;;;15.20;71.80;;;;;;5018225;28;20054;-82
2021/09/19 00:51:06;;;;;;;8.93;5.25;;;15.10;71.80;;;;;;5018056;28;20469;-82
2021/09/19 00:53:36;;;;;;;10.10;6.10;;;15.10;71.90;;;;;;5018476;28;20042;-82
2021/09/19 00:56:05;;;;;;;7.32;5.80;;;15.10;72.00;;;;;;5016184;28;20088;-82
2021/09/19 00:58:33;;;;;;;8.52;5.68;;;15.10;72.00;;;;;;5015991;28;20054;-82
2021/09/19 01:01:01;;;;;;;9.15;5.75;;;15.00;72.10;;;;;;5017405;28;20104;-82
2021/09/19 01:03:28;;;;;;;10.25;5.45;;;15.00;72.10;;;;;;5018510;28;20490;-82
2021/09/19 01:05:56;;;;;;;16.08;5.57;;;15.00;72.20;;;;;;5017969;28;20053;-82
2021/09/19 01:08:23;;;;;;;11.85;5.47;;;15.00;72.30;;;;;;5018198;28;20050;-82
2021/09/19 01:10:51;;;;;;;9.43;5.82;;;15.00;72.40;;;;;;5014001;28;20456;-82
2021/09/19 01:13:18;;;;;;;9.35;5.60;;;14.90;72.50;;;;;;5016701;28;20053;-82
2021/09/19 01:15:45;;;;;;;9.38;5.40;;;14.90;72.60;;;;;;5015183;28;20046;-82
2021/09/19 01:18:15;;;;;;;9.85;5.20;;;14.90;72.70;;;;;;5014974;28;20533;-82
2021/09/19 01:20:42;;;;;;;12.55;5.88;;;14.80;72.60;;;;;;5014451;28;20633;-82
2021/09/19 01:23:11;;;;;;;9.27;5.22;;;14.80;72.50;;;;;;5015057;28;20062;-82
2021/09/19 01:25:39;;;;;;;10.95;6.50;;;14.80;72.50;;;;;;5013667;28;20072;-82
2021/09/19 01:28:07;;;;;;;9.75;6.65;;;14.80;72.70;;;;;;5013469;28;20049;-82
2021/09/19 01:30:35;;;;;;;9.55;5.50;;;14.70;72.80;;;;;;5014944;28;20054;-82
2021/09/19 01:33:03;;;;;;;14.18;6.95;;;14.70;73.00;;;;;;5014648;28;20069;-82
2021/09/19 01:35:31;;;;;;;12.60;5.70;;;14.60;72.90;;;;;;5014363;28;20073;-82
2021/09/19 01:37:58;;;;;;;11.02;6.25;;;14.60;72.90;;;;;;5014838;28;20046;-82
2021/09/19 01:40:26;;;;;;;12.05;5.75;;;14.60;72.90;;;;;;5012222;28;20054;-81
2021/09/19 01:42:54;;;;;;;8.63;5.80;;;14.60;72.90;;;;;;5017136;28;20045;-82
2021/09/19 01:45:21;;;;;;;8.95;6.15;;;14.60;72.80;;;;;;5017411;28;20045;-82
2021/09/19 01:47:49;;;;;;;10.48;6.15;;;14.60;72.80;;;;;;5017546;28;20058;-82
2021/09/19 01:50:16;;;;;;;10.65;6.07;;;14.50;72.70;;;;;;5016617;28;20045;-82
2021/09/19 01:52:43;;;;;;;10.18;6.53;;;14.50;72.60;;;;;;5013394;28;20057;-82
2021/09/19 01:55:10;;;;;;;9.52;6.60;;;14.50;72.60;;;;;;5016411;28;20453;-81
2021/09/19 01:57:36;;;;;;;13.38;7.68;;;14.50;72.50;;;;;;5016860;28;20112;-82
2021/09/19 02:00:05;;;;;;;11.05;6.80;;;14.50;72.70;;;;;;5017263;28;20097;-82
2021/09/19 02:02:36;;;;;;;14.43;6.72;;;14.50;72.90;;;;;;5017110;28;20045;-82
2021/09/19 02:05:07;;;;;;;11.35;5.88;;;14.50;73.00;;;;;;5014908;28;20073;-82
2021/09/19 02:07:35;;;;;;;12.18;5.95;;;14.50;73.10;;;;;;5014423;28;20054;-82
2021/09/19 02:10:09;;;;;;;9.80;5.85;;;14.40;73.00;;;;;;5016301;28;20045;-82
2021/09/19 02:12:37;;;;;;;14.68;7.07;;;14.40;73.00;;;;;;5017082;28;20050;-82
2021/09/19 02:15:07;;;;;;;10.57;6.38;;;14.40;73.00;;;;;;5016769;28;20550;-82
2021/09/19 02:17:34;;;;;;;9.75;6.03;;;14.40;73.00;;;;;;5016676;28;20041;-82
2021/09/19 02:20:03;;;;;;;9.88;5.95;;;14.40;73.00;;;;;;5014649;28;20050;-82
2021/09/19 02:22:30;;;;;;;11.68;6.25;;;14.40;73.00;;;;;;5014397;28;20615;-82
2021/09/19 02:24:57;;;;;;;11.88;7.00;;;14.40;73.00;;;;;;5015878;28;20096;-81
2021/09/19 02:27:23;;;;;;;16.25;7.90;;;14.40;73.10;;;;;;5016657;28;20633;-82
2021/09/19 02:29:50;;;;;;;10.35;6.72;;;14.30;73.20;;;;;;5016713;28;20046;-82
2021/09/19 02:32:17;;;;;;;16.63;7.22;;;14.30;73.20;;;;;;5016083;28;20045;-82
2021/09/19 02:34:44;;;;;;;12.60;7.10;;;14.30;73.20;;;;;;5012668;28;20046;-81
2021/09/19 02:37:11;;;;;;;17.02;7.55;;;14.30;73.10;;;;;;5015748;28;20123;-82
2021/09/19 02:39:38;;;;;;;12.52;6.93;;;14.30;73.10;;;;;;5016510;28;20046;-82
2021/09/19 02:42:05;;;;;;;12.18;7.97;;;14.30;73.00;;;;;;5016505;28;20400;-82
2021/09/19 02:44:32;;;;;;;9.77;5.63;;;14.20;72.90;;;;;;5016409;28;20049;-82
2021/09/19 02:46:59;;;;;;;11.88;7.82;;;14.20;73.00;;;;;;5013333;28;20107;-82
2021/09/19 02:49:26;;;;;;;11.55;7.07;;;14.20;73.10;;;;;;5014127;28;20392;-82
2021/09/19 02:51:53;;;;;;;14.35;7.80;;;14.20;73.20;;;;;;5016074;28;20625;-82
2021/09/19 02:54:20;;;;;;;12.25;7.63;;;14.20;73.20;;;;;;5016433;28;20100;-82
2021/09/19 02:56:47;;;;;;;13.73;8.07;;;14.10;73.10;;;;;;5016365;28;20057;-82
2021/09/19 02:59:13;;;;;;;12.50;8.18;;;14.10;73.10;;;;;;5015795;28;20486;-82
2021/09/19 03:01:40;;;;;;;12.77;8.60;;;14.10;73.00;;;;;;5012343;28;20054;-82
2021/09/19 03:04:07;;;;;;;13.07;9.07;;;14.00;73.10;;;;;;5015460;28;20053;-82
2021/09/19 03:06:34;;;;;;;14.98;7.95;;;14.00;73.20;;;;;;5016277;28;20053;-82
2021/09/19 03:09:01;;;;;;;12.18;8.32;;;14.00;73.20;;;;;;5016152;28;20489;-82
2021/09/19 03:11:28;;;;;;;14.77;8.15;;;13.90;73.20;;;;;;5019905;28;20096;-82
2021/09/19 03:13:55;;;;;;;13.30;8.23;;;13.90;73.30;;;;;;5016972;28;20042;-82
2021/09/19 03:16:22;;;;;;;11.45;7.88;;;13.90;73.40;;;;;;5017774;28;20053;-82
2021/09/19 03:18:49;;;;;;;9.88;7.13;;;13.90;73.30;;;;;;5020254;28;20046;-82
2021/09/19 03:21:16;;;;;;;12.68;8.02;;;13.90;73.40;;;;;;5019944;28;20461;-82
2021/09/19 03:23:43;;;;;;;12.98;8.20;;;13.90;73.40;;;;;;5020108;28;20049;-82
2021/09/19 03:26:10;;;;;;;12.18;8.02;;;13.90;73.30;;;;;;5018613;28;20465;-82
2021/09/19 03:28:37;;;;;;;11.50;7.95;;;13.90;73.30;;;;;;5017071;28;20046;-82
2021/09/19 03:31:04;;;;;;;13.50;8.40;;;13.80;73.30;;;;;;5018800;28;20049;-82
2021/09/19 03:33:30;;;;;;;19.85;8.32;;;13.80;73.20;;;;;;5019909;28;20404;-82
2021/09/19 03:35:57;;;;;;;11.88;8.25;;;13.80;73.20;;;;;;5019901;28;20062;-82
2021/09/19 03:38:24;;;;;;;12.40;8.68;;;13.80;73.10;;;;;;5020142;28;20088;-82
2021/09/19 03:40:51;;;;;;;11.73;8.20;;;13.70;73.10;;;;;;5015865;28;20053;-82
2021/09/19 03:43:18;;;;;;;12.32;8.93;;;13.70;73.20;;;;;;5018360;28;20061;-82
2021/09/19 03:45:45;;;;;;;12.13;9.25;;;13.70;73.30;;;;;;5016529;28;20100;-82
2021/09/19 03:48:12;;;;;;;16.20;10.75;;;13.70;73.30;;;;;;5016941;28;20116;-82
2021/09/19 03:50:39;;;;;;;12.30;9.65;;;13.60;73.40;;;;;;5019745;28;20049;-82
2021/09/19 03:53:05;;;;;;;13.25;10.23;;;13.60;73.40;;;;;;5017761;28;20042;-82
2021/09/19 03:55:32;;;;;;;10.98;8.43;;;13.60;73.30;;;;;;5016888;28;20192;-82
2021/09/19 03:58:00;;;;;;;11.35;8.23;;;13.60;73.50;;;;;;5018676;28;20116;-82
2021/09/19 04:00:28;;;;;;;13.30;7.90;;;13.50;73.50;;;;;;5019274;28;20046;-82
2021/09/19 04:02:55;;;;;;;10.05;7.63;;;13.50;73.60;;;;;;5019208;28;20104;-82
2021/09/19 04:05:22;;;;;;;10.15;7.50;;;13.50;73.60;;;;;;5019360;28;20099;-82
2021/09/19 04:07:50;;;;;;;10.02;7.57;;;13.50;73.70;;;;;;5015394;28;20531;-82
2021/09/19 04:10:17;;;;;;;12.00;7.93;;;13.50;73.70;;;;;;5017702;28;20395;-82
2021/09/19 04:12:44;;;;;;;9.52;7.72;;;13.40;73.60;;;;;;5019654;28;20057;-82
2021/09/19 04:15:12;;;;;;;12.05;8.27;;;13.40;73.50;;;;;;5018769;28;20460;-82
2021/09/19 04:17:39;;;;;;;11.13;8.88;;;13.40;73.50;;;;;;5019398;28;20056;-82
2021/09/19 04:20:07;;;;;;;12.63;8.70;;;13.40;73.50;;;;;;5017456;28;20050;-82
2021/09/19 04:22:34;;;;;;;14.27;9.48;;;13.40;73.60;;;;;;5015818;28;20062;-82
2021/09/19 04:25:01;;;;;;;15.90;9.35;;;13.40;73.70;;;;;;5018062;28;20045;-82
2021/09/19 04:27:28;;;;;;;14.48;8.88;;;13.40;73.60;;;;;;5019013;28;20071;-82
2021/09/19 04:29:54;;;;;;;12.93;8.35;;;13.40;73.60;;;;;;5018610;28;20053;-82
2021/09/19 04:32:22;;;;;;;12.55;8.57;;;13.40;73.50;;;;;;5018859;28;20390;-82
2021/09/19 04:34:49;;;;;;;13.10;9.23;;;13.30;73.50;;;;;;5014632;28;20045;-82
2021/09/19 04:37:17;;;;;;;13.00;9.13;;;13.30;73.50;;;;;;5017564;28;20054;-82
2021/09/19 04:39:45;;;;;;;10.85;8.70;;;13.30;73.50;;;;;;5015745;28;20042;-82
2021/09/19 04:42:13;;;;;;;13.90;9.50;;;13.30;73.50;;;;;;5015361;28;20057;-82
2021/09/19 04:44:41;;;;;;;11.20;9.38;;;13.30;73.60;;;;;;5015718;28;20050;-82
2021/09/19 04:47:08;;;;;;;11.85;9.18;;;13.20;73.70;;;;;;5015684;28;20053;-82
2021/09/19 04:49:36;;;;;;;14.85;8.90;;;13.20;73.80;;;;;;5014192;28;20076;-82
2021/09/19 04:52:03;;;;;;;14.88;12.32;;;13.20;73.90;;;;;;5014545;28;20085;-82
2021/09/19 04:54:30;;;;;;;13.43;10.63;;;13.20;74.00;;;;;;5015507;28;20300;-82
2021/09/19 04:56:56;;;;;;;14.30;10.18;;;13.20;74.20;;;;;;5017933;28;20088;-82
2021/09/19 04:59:23;;;;;;;14.98;11.45;;;13.10;74.30;;;;;;5018484;28;20046;-82
2021/09/19 05:01:50;;;;;;;18.00;11.48;;;13.10;74.30;;;;;;5014438;28;20049;-82
2021/09/19 05:04:18;;;;;;;14.68;12.00;;;13.10;74.30;;;;;;5016620;28;20046;-82
2021/09/19 05:06:45;;;;;;;18.58;14.10;;;13.10;74.30;;;;;;5018249;28;20108;-82
2021/09/19 05:09:12;;;;;;;22.55;15.57;;;13.10;74.30;;;;;;5018129;28;20042;-82
2021/09/19 05:11:38;;;;;;;19.05;13.63;;;13.00;74.30;;;;;;5017697;28;20441;-82
2021/09/19 05:14:06;;;;;;;21.50;15.00;;;13.00;74.40;;;;;;5016277;28;20046;-82
2021/09/19 05:16:33;;;;;;;17.08;13.07;;;13.00;74.40;;;;;;5012895;28;20469;-82
2021/09/19 05:19:00;;;;;;;17.55;14.48;;;13.00;74.50;;;;;;5014499;28;20111;-82
2021/09/19 05:21:27;;;;;;;18.83;15.73;;;13.00;74.40;;;;;;5014944;28;20050;-82
2021/09/19 05:23:54;;;;;;;17.52;12.07;;;12.90;74.40;;;;;;5014942;28;20100;-82
2021/09/19 05:26:24;;;;;;;15.82;12.75;;;12.90;74.50;;;;;;5014583;28;20073;-82
2021/09/19 05:28:51;;;;;;;18.20;13.27;;;12.90;74.50;;;;;;5014711;28;20049;-82
2021/09/19 05:31:19;;;;;;;18.60;13.15;;;12.90;74.50;;;;;;5012576;28;20123;-82
2021/09/19 05:33:46;;;;;;;14.82;12.38;;;12.90;74.50;;;;;;5016928;28;20054;-82
2021/09/19 05:36:13;;;;;;;16.75;13.65;;;12.90;74.40;;;;;;5017917;28;20046;-82
2021/09/19 05:38:41;;;;;;;14.77;11.98;;;12.90;74.40;;;;;;5017671;28;20054;-82
2021/09/19 05:41:08;;;;;;;16.10;12.18;;;12.90;74.50;;;;;;5015601;28;20542;-82
2021/09/19 05:43:35;;;;;;;20.83;12.20;;;12.90;74.50;;;;;;5014597;28;20076;-82
2021/09/19 05:46:02;;;;;;;16.88;12.10;;;12.90;74.50;;;;;;5016551;28;20108;-82
2021/09/19 05:48:29;;;;;;;15.55;12.57;;;12.90;74.50;;;;;;5017356;28;20442;-82
2021/09/19 05:50:56;;;;;;;18.70;12.48;;;12.90;74.50;;;;;;5017407;28;20045;-82
2021/09/19 05:53:23;;;;;;;16.27;13.23;;;12.90;74.50;;;;;;5017333;28;20045;-82
2021/09/19 05:55:50;;;;;;;17.88;13.65;;;12.90;74.60;;;;;;5013087;28;20559;-82
2021/09/19 05:58:16;;;;;;;13.73;10.82;;;12.80;74.60;;;;;;5015749;28;20049;-82
2021/09/19 06:00:43;;;;;;;22.83;15.43;;;12.80;74.70;;;;;;5014481;28;20050;-82
2021/09/19 06:03:10;;;;;;;15.55;13.20;;;12.80;74.70;;;;;;5014107;28;20054;-81
2021/09/19 06:05:38;;;;;;;21.35;15.35;;;12.90;74.90;;;;;;5014060;28;20042;-81
2021/09/19 06:08:05;;;;;;;15.93;14.02;;;12.80;75.10;;;;;;5014391;28;20050;-84
2021/09/19 06:10:32;;;;;;;16.75;13.77;;;12.80;75.20;;;;;;5011546;28;20462;-82
2021/09/19 06:12:59;;;;;;;15.07;12.25;;;12.80;75.30;;;;;;5013624;28;20096;-82
2021/09/19 06:15:26;;;;;;;19.58;15.75;;;12.80;75.40;;;;;;5016818;28;20053;-81
2021/09/19 06:17:53;;;;;;;24.05;19.00;;;12.80;75.50;;;;;;5017016;28;20053;-81
2021/09/19 06:20:20;;;;;;;22.73;17.33;;;12.90;75.60;;;;;;5016821;28;20045;-81
2021/09/19 06:22:47;;;;;;;18.83;15.43;;;12.90;75.80;;;;;;5012673;28;20049;-82
2021/09/19 06:25:14;;;;;;;26.13;19.23;;;12.90;75.90;;;;;;5026924;28;20053;-82
2021/09/19 06:27:41;;;;;;;26.85;19.73;;;12.90;75.90;;;;;;5013790;28;20112;-82
2021/09/19 06:30:09;;;;;;;18.23;15.07;;;12.90;76.00;;;;;;5013859;28;20461;-81
2021/09/19 06:32:36;;;;;;;22.90;16.80;;;12.90;76.00;;;;;;5016768;28;20049;-81
2021/09/19 06:35:05;;;;;;;25.60;21.48;;;12.90;76.00;;;;;;5014578;28;20128;-81
2021/09/19 06:37:32;;;;;;;29.73;21.33;;;12.90;76.10;;;;;;5014236;28;20168;-82
2021/09/19 06:39:59;;;;;;;23.77;18.70;;;13.00;76.20;;;;;;5015385;28;20108;-82
2021/09/19 06:42:26;;;;;;;28.65;21.40;;;13.10;76.40;;;;;;5016608;28;20053;-81
2021/09/19 06:44:53;;;;;;;25.90;19.83;;;13.10;76.60;;;;;;5016459;28;20589;-82
2021/09/19 06:47:20;;;;;;;26.77;18.63;;;13.10;76.60;;;;;;5016556;28;20608;-82
2021/09/19 06:49:47;;;;;;;30.60;23.48;;;13.20;76.80;;;;;;5013574;28;20045;-81
2021/09/19 06:52:14;;;;;;;24.60;18.30;;;13.20;76.90;;;;;;5026661;28;20107;-81
2021/09/19 06:54:43;;;;;;;31.42;25.27;;;13.20;76.90;;;;;;5001889;28;20045;-81
2021/09/19 06:57:10;;;;;;;28.67;23.77;;;13.30;77.00;;;;;;5027395;28;20049;-82
2021/09/19 06:59:37;;;;;;;32.42;24.33;;;13.30;77.20;;;;;;5022656;28;20569;-81
2021/09/19 07:02:05;;;;;;;29.17;24.48;;;13.40;77.40;;;;;;5023743;28;20103;-82
2021/09/19 07:04:32;;;;;;;31.52;24.63;;;13.40;77.60;;;;;;5012297;28;20054;-81
2021/09/19 07:06:59;;;;;;;32.20;23.50;;;13.40;77.70;;;;;;5013803;28;20494;-81
2021/09/19 07:09:26;;;;;;;36.92;27.13;;;13.40;77.90;;;;;;5014175;28;20092;-81
2021/09/19 07:11:53;;;;;;;27.98;22.10;;;13.40;78.00;;;;;;5014647;28;20113;-81
2021/09/19 07:14:19;;;;;;;38.20;30.73;;;13.50;78.20;;;;;;5022029;28;20050;-81
2021/09/19 07:16:47;;;;;;;38.53;31.10;;;13.50;78.40;;;;;;5014239;28;20459;-81
2021/09/19 07:19:14;;;;;;;38.63;31.08;;;13.50;78.60;;;;;;5027545;28;20136;-81
2021/09/19 07:21:41;;;;;;;33.30;27.67;;;13.60;78.80;;;;;;5013845;28;20525;-82
2021/09/19 07:24:08;;;;;;;56.00;39.83;;;13.60;78.90;;;;;;5014388;28;20539;-82
2021/09/19 07:26:35;;;;;;;59.42;46.25;;;13.70;79.10;;;;;;5014274;28;20165;-82
2021/09/19 07:29:02;;;;;;;64.72;47.08;;;13.80;79.40;;;;;;5013949;28;20053;-82
2021/09/19 07:31:29;;;;;;;72.35;50.92;;;13.90;79.80;;;;;;5012713;28;20051;-82
2021/09/19 07:33:56;;;;;;;62.75;46.38;;;13.90;80.20;;;;;;5016450;28;20058;-83
2021/09/19 07:36:27;;;;;;;65.53;45.97;;;14.00;80.50;;;;;;5016445;28;20498;-83
2021/09/19 07:38:57;;;;;;;81.68;54.88;;;14.10;80.60;;;;;;5017190;28;20053;-82
2021/09/19 07:41:24;;;;;;;64.05;47.30;;;14.10;80.80;;;;;;5017352;28;20046;-82
2021/09/19 07:43:51;;;;;;;65.03;47.50;;;14.30;81.00;;;;;;5012997;28;20050;-83
2021/09/19 07:46:18;;;;;;;65.32;48.78;;;14.40;81.00;;;;;;5015341;28;20093;-82
2021/09/19 07:48:45;;;;;;;74.93;54.05;;;14.40;81.10;;;;;;5016973;28;20050;-82
2021/09/19 07:51:13;;;;;;;83.38;53.53;;;14.50;81.10;;;;;;5019671;28;20108;-82
2021/09/19 07:53:40;;;;;;;65.70;48.05;;;14.60;81.20;;;;;;5017298;28;20045;-82
2021/09/19 07:56:07;;;;;;;64.45;50.03;;;14.70;81.30;;;;;;5016509;28;20100;-82
2021/09/19 07:58:34;;;;;;;65.95;49.70;;;14.70;81.20;;;;;;5017505;28;20053;-83
2021/09/19 08:01:00;;;;;;;63.20;47.85;;;14.90;81.30;;;;;;5019733;28;20045;-83
2021/09/19 08:03:28;;;;;;;53.70;39.42;;;14.90;81.20;;;;;;5018628;28;20085;-83
2021/09/19 08:05:55;;;;;;;51.33;40.10;;;14.90;81.30;;;;;;5016879;28;20514;-81
2021/09/19 08:08:22;;;;;;;57.33;43.10;;;15.10;81.20;;;;;;5017450;28;20053;-81
2021/09/19 08:10:48;;;;;;;69.30;45.22;;;15.20;81.10;;;;;;5016285;28;20049;-82
2021/09/19 08:13:15;;;;;;;59.95;45.88;;;15.20;81.00;;;;;;5019093;28;20062;-81
2021/09/19 08:15:42;;;;;;;66.63;48.40;;;15.40;80.90;;;;;;5020340;28;20124;-82
2021/09/19 08:18:09;;;;;;;61.83;48.30;;;15.40;80.80;;;;;;5020448;28;20144;-82
2021/09/19 08:20:37;;;;;;;54.33;43.45;;;15.50;80.80;;;;;;5019307;28;20175;-82
2021/09/19 08:23:04;;;;;;;51.00;38.95;;;15.60;80.80;;;;;;5018074;28;20461;-82
2021/09/19 08:25:30;;;;;;;46.08;38.13;;;15.70;80.80;;;;;;5017901;28;20050;-82
2021/09/19 08:27:57;;;;;;;43.90;37.80;;;15.80;80.70;;;;;;5016687;28;20502;-82
2021/09/19 08:30:24;;;;;;;46.85;36.78;;;15.90;80.60;;;;;;5017283;28;20042;-83
2021/09/19 08:32:51;;;;;;;51.58;36.03;;;16.00;80.50;;;;;;5017011;28;20108;-82
2021/09/19 08:35:18;;;;;;;47.53;34.83;;;16.20;80.30;;;;;;5016406;28;20505;-82
2021/09/19 08:37:45;;;;;;;43.22;34.08;;;16.30;80.00;;;;;;5015175;28;20460;-82
2021/09/19 08:40:14;;;;;;;41.80;35.17;;;16.40;79.70;;;;;;5019163;28;20108;-82
2021/09/19 08:42:43;;;;;;;46.30;37.75;;;16.50;79.60;;;;;;5019541;28;20046;-82
2021/09/19 08:45:11;;;;;;;41.85;35.80;;;16.60;79.50;;;;;;5019746;28;20050;-82
2021/09/19 08:47:38;;;;;;;37.88;31.85;;;16.70;79.30;;;;;;5019160;28;20085;-82
2021/09/19 08:50:08;;;;;;;38.65;32.65;;;16.80;79.00;;;;;;5020846;28;20046;-82
2021/09/19 08:52:36;;;;;;;40.13;34.53;;;16.90;78.80;;;;;;5017507;28;20061;-82
2021/09/19 08:55:06;;;;;;;34.78;30.58;;;17.10;78.60;;;;;;5027263;28;20506;-82
2021/09/19 08:57:33;;;;;;;36.80;31.42;;;17.20;78.40;;;;;;5031255;28;20509;-82
2021/09/19 09:00:05;;;;;;;28.65;25.10;;;17.40;78.10;;;;;;5029874;28;20521;-82
2021/09/19 09:02:49;;;;;;;27.30;23.95;;;17.40;77.80;;;;;;5029661;28;20041;-82
2021/09/19 09:05:28;;;;;;;30.73;26.15;;;17.60;77.70;;;;;;5028932;28;20421;-82
2021/09/19 09:07:57;;;;;;;29.45;26.33;;;17.70;77.30;;;;;;4996725;28;20078;-82
2021/09/19 09:10:35;;;;;;;31.70;25.38;;;17.90;76.90;;;;;;5031636;28;20049;-82
2021/09/19 09:13:06;;;;;;;30.67;26.63;;;17.90;76.40;;;;;;5031754;28;20053;-82
2021/09/19 09:15:43;;;;;;;25.00;22.40;;;18.10;76.20;;;;;;5029307;28;20053;-82
2021/09/19 09:18:40;;;;;;;23.92;21.33;;;18.20;75.80;;;;;;5029099;28;20096;-82
2021/09/19 09:21:09;;;;;;;25.48;20.83;;;18.30;75.20;;;;;;5027600;28;20053;-82
2021/09/19 09:23:38;;;;;;;25.98;21.80;;;18.40;74.90;;;;;;5029181;28;20092;-82
2021/09/19 09:26:14;;;;;;;23.13;20.70;;;18.50;74.60;;;;;;5032570;28;20041;-82
2021/09/19 09:29:00;;;;;;;24.83;18.42;;;18.60;74.10;;;;;;5030045;28;20045;-82
2021/09/19 09:31:47;;;;;;;26.85;20.52;;;18.80;73.50;;;;;;5029343;28;20054;-82
2021/09/19 09:34:18;;;;;;;24.80;21.90;;;18.90;73.20;;;;;;5029125;28;20046;-82
2021/09/19 09:36:55;;;;;;;25.88;22.77;;;19.00;72.90;;;;;;5031436;28;20100;-82
2021/09/19 09:39:39;;;;;;;23.13;20.58;;;19.10;72.70;;;;;;5028888;28;20060;-82
2021/09/19 09:42:07;;;;;;;;;;;19.20;72.40;;;;;;5029124;28;20050;-83
2021/09/19 09:44:37;;;;;;;23.65;20.50;;;19.30;72.20;;;;;;5028766;28;20358;-82
2021/09/19 09:47:10;;;;;;;23.02;19.88;;;19.40;72.00;;;;;;5028428;28;20050;-82
2021/09/19 09:49:45;;;;;;;20.70;17.70;;;19.50;71.60;;;;;;5030106;28;20495;-82
2021/09/19 09:52:23;;;;;;;20.52;17.98;;;19.70;71.30;;;;;;5033002;28;20056;-82
2021/09/19 09:55:10;;;;;;;21.38;17.13;;;19.70;70.90;;;;;;5031790;28;20506;-82
2021/09/19 09:57:37;;;;;;;22.38;17.60;;;19.90;70.70;;;;;;5028265;28;20049;-82
2021/09/19 10:00:12;;;;;;;22.35;19.95;;;19.90;70.40;;;;;;5028609;28;20403;-82
2021/09/19 10:02:44;;;;;;;20.58;17.98;;;19.90;70.10;;;;;;5028161;28;20498;-82
2021/09/19 10:05:13;;;;;;;;;;;20.00;70.00;;;;;;5028762;28;20049;-82
2021/09/19 10:07:41;;;;;;;21.40;18.98;;;20.10;69.90;;;;;;5029698;28;20588;-82
2021/09/19 10:10:13;;;;;;;20.45;16.58;;;20.10;70.00;;;;;;5032258;28;20079;-82
2021/09/19 10:12:40;;;;;;;20.98;18.77;;;20.30;69.90;;;;;;5028406;28;20053;-82
2021/09/19 10:15:08;;;;;;;19.02;16.83;;;20.40;69.60;;;;;;5028293;28;20140;-82
2021/09/19 10:17:35;;;;;;;18.08;14.50;;;20.40;69.10;;;;;;5027849;28;20155;-82
2021/09/19 10:20:29;;;;;;;20.27;15.52;;;20.50;68.70;;;;;;5027604;28;20104;-82
2021/09/19 10:23:19;;;;;;;20.70;16.35;;;20.60;68.40;;;;;;5013656;28;20046;-82
2021/09/19 10:25:50;;;;;;;23.42;17.25;;;20.70;67.80;;;;;;4935449;29;20567;-82
2021/09/19 10:28:26;;;;;;;20.58;16.10;;;20.80;67.80;;;;;;4948055;29;20424;-83
2021/09/19 10:31:19;;;;;;;19.63;16.63;;;20.90;67.80;;;;;;4951496;29;20051;-82
2021/09/19 10:33:55;;;;;;;18.40;15.23;;;21.00;67.70;;;;;;4951397;29;20054;-82
2021/09/19 10:36:44;;;;;;;17.10;15.30;;;21.20;67.50;;;;;;4949727;29;20051;-82
2021/09/19 10:39:24;;;;;;;17.42;15.63;;;21.40;67.00;;;;;;4950611;29;20051;-82
2021/09/19 10:42:09;;;;;;;19.35;17.02;;;21.50;66.30;;;;;;4950217;29;20054;-82
2021/09/19 10:44:44;;;;;;;18.02;16.15;;;21.60;66.10;;;;;;4950584;29;20055;-82
2021/09/19 10:47:38;;;;;;;17.48;15.18;;;21.80;66.20;;;;;;4950368;29;20078;-82
2021/09/19 10:50:22;;;;;;;16.92;13.65;;;21.90;66.10;;;;;;4937228;29;20106;-82
2021/09/19 10:52:57;;;;;;;14.50;11.90;;;22.10;66.00;;;;;;4950846;29;20051;-82
2021/09/19 10:55:32;;;;;;;20.50;13.82;;;22.30;65.60;;;;;;4950979;28;20095;-82
2021/09/19 10:58:13;;;;;;;16.42;14.38;;;22.40;65.30;;;;;;4951428;29;20090;-82
2021/09/19 11:00:44;;;;;;;14.38;12.77;;;22.60;64.80;;;;;;4950099;29;20468;-82
2021/09/19 11:03:14;;;;;;;18.02;14.60;;;22.70;64.20;;;;;;4999970;28;20042;-82
2021/09/19 11:05:45;;;;;;;16.13;14.05;;;22.80;64.10;;;;;;5027542;28;20056;-83
2021/09/19 11:08:12;;;;;;;16.75;13.55;;;23.00;63.40;;;;;;5027674;28;20050;-82
2021/09/19 11:10:45;;;;;;;14.10;12.60;;;23.20;62.90;;;;;;5027634;28;20054;-82
2021/09/19 11:13:26;;;;;;;16.02;12.82;;;23.30;62.70;;;;;;5030369;28;20060;-82
2021/09/19 11:16:02;;;;;;;15.40;13.10;;;23.40;62.80;;;;;;5029386;28;20095;-82
2021/09/19 11:18:39;;;;;;;15.82;11.70;;;23.50;61.90;;;;;;5026157;28;20600;-82
2021/09/19 11:21:14;;;;;;;16.00;13.02;;;23.60;61.50;;;;;;5025947;28;20061;-82
2021/09/19 11:23:46;;;;;;;11.75;10.55;;;23.70;61.50;;;;;;5025998;28;20103;-82
2021/09/19 11:26:30;;;;;;;13.48;10.80;;;23.80;61.50;;;;;;5026304;28;20049;-82
2021/09/19 11:29:00;;;;;;;12.38;10.30;;;23.80;60.90;;;;;;5011971;28;20054;-83
2021/09/19 11:31:28;;;;;;;11.52;9.30;;;23.90;60.70;;;;;;5030740;28;20433;-82
2021/09/19 11:33:58;;;;;;;12.35;9.13;;;23.90;60.00;;;;;;5031990;28;20081;-82
2021/09/19 11:36:25;;;;;;;10.88;8.80;;;23.90;59.50;;;;;;5030070;28;20099;-82
2021/09/19 11:38:54;;;;;;;12.43;8.63;;;23.90;58.90;;;;;;5030091;28;20095;-82
2021/09/19 11:41:22;;;;;;;10.52;8.63;;;23.90;58.30;;;;;;5029964;28;20571;-82
2021/09/19 11:43:52;;;;;;;10.50;8.27;;;24.00;58.30;;;;;;5029717;28;20099;-82
2021/09/19 11:46:23;;;;;;;11.43;9.40;;;24.10;58.40;;;;;;5033343;28;20049;-82
2021/09/19 11:48:50;;;;;;;13.30;9.13;;;24.10;58.40;;;;;;5031534;28;20056;-82
2021/09/19 11:51:18;;;;;;;10.90;9.30;;;24.10;58.50;;;;;;5029749;28;20358;-82
2021/09/19 11:53:51;;;;;;;9.43;7.95;;;24.20;58.30;;;;;;5029788;28;20049;-82
2021/09/19 11:56:19;;;;;;;11.75;8.40;;;24.20;57.70;;;;;;5028724;28;20038;-82
2021/09/19 11:58:47;;;;;;;10.13;8.55;;;24.20;57.40;;;;;;5028888;28;20053;-82
2021/09/19 12:01:15;;;;;;;10.02;7.88;;;24.20;57.30;;;;;;5029754;28;20041;-82
2021/09/19 12:03:43;;;;;;;9.80;8.07;;;24.20;57.00;;;;;;5029509;28;20104;-82
2021/09/19 12:06:10;;;;;;;11.55;8.13;;;24.20;56.80;;;;;;5029536;28;20052;-82
2021/09/19 12:08:41;;;;;;;10.07;7.55;;;24.20;56.70;;;;;;5029703;28;20053;-82
2021/09/19 12:11:08;;;;;;;10.02;7.90;;;24.20;56.80;;;;;;5029809;28;20045;-82
2021/09/19 12:13:38;;;;;;;8.95;6.75;;;24.30;56.80;;;;;;5030993;28;20045;-82
2021/09/19 12:16:12;;;;;;;9.63;7.25;;;24.30;56.70;;;;;;5032369;28;20045;-82
2021/09/19 12:18:45;;;;;;;11.85;7.32;;;24.30;56.50;;;;;;5029343;28;20111;-82
2021/09/19 12:21:16;;;;;;;8.43;6.72;;;24.30;56.60;;;;;;5028988;28;20506;-82
2021/09/19 12:23:49;;;;;;;8.18;7.03;;;24.40;56.60;;;;;;5029137;28;20053;-82
2021/09/19 12:26:25;;;;;;;9.52;7.68;;;24.40;56.40;;;;;;5028983;28;20494;-82
2021/09/19 12:28:58;;;;;;;9.27;7.82;;;24.40;55.90;;;;;;5014398;28;20072;-82
2021/09/19 12:31:42;;;;;;;9.07;6.88;;;24.40;55.50;;;;;;5032146;28;20501;-82
2021/09/19 12:34:12;;;;;;;8.75;7.28;;;24.40;55.20;;;;;;5032634;28;20106;-82
2021/09/19 12:36:51;;;;;;;11.48;7.72;;;24.40;55.50;;;;;;5028907;28;20045;-82
2021/09/19 12:39:19;;;;;;;11.27;7.55;;;24.40;55.60;;;;;;5028963;28;20119;-82
2021/09/19 12:41:50;;;;;;;8.82;6.70;;;24.40;55.30;;;;;;5028283;28;20453;-82
2021/09/19 12:44:20;;;;;;;11.70;7.60;;;24.30;55.50;;;;;;5028795;28;20050;-82